Time;durP1;ratioP1;P1;durP2;ratioP2;P2;SDS_P1;SDS_P2;PMS_P1;PMS_P2;Temp;Humidity;BMP_temperature;BMP_pressure;BME280_temperature;BME280_humidity;BME280_pressure;Samples;Min_cycle;Max_cycle;Signal;HPM_P1;HPM_P2
2021/12/27 00:02:23;;;;;;;;;21.00;19.50;;;;;8.67;82.32;99985.91;5070284;28;45813;-71
2021/12/27 00:04:49;;;;;;;;;31.00;24.75;;;;;8.78;82.62;99998.69;5065605;28;45627;-71
2021/12/27 00:07:15;;;;;;;;;24.75;19.25;;;;;8.82;82.35;99998.53;5057621;28;45706;-71
2021/12/27 00:09:40;;;;;;;;;22.75;21.75;;;;;8.85;82.75;99997.53;5066111;28;46126;-71
2021/12/27 00:12:07;;;;;;;;;27.50;22.75;;;;;8.76;82.06;99975.00;5077004;27;45587;-73
2021/12/27 00:14:32;;;;;;;;;30.00;25.50;;;;;8.47;82.49;99928.69;5071401;28;45392;-72
2021/12/27 00:16:57;;;;;;;;;26.75;24.25;;;;;8.86;82.64;99983.44;5067562;27;45587;-72
2021/12/27 00:19:23;;;;;;;;;32.00;25.75;;;;;8.93;82.54;99984.03;5064865;28;46038;-72
2021/12/27 00:21:48;;;;;;;;;26.25;23.00;;;;;8.71;81.87;99953.25;5075712;27;45443;-73
2021/12/27 00:24:13;;;;;;;;;19.00;18.00;;;;;8.71;82.28;99929.50;5072910;28;45718;-73
2021/12/27 00:26:39;;;;;;;;;29.50;29.25;;;;;8.99;82.39;99973.25;5074052;28;45396;-72
2021/12/27 00:29:04;;;;;;;;;29.50;25.50;;;;;8.87;82.57;99949.06;5070188;28;46093;-73
2021/12/27 00:31:31;;;;;;;;;30.50;24.25;;;;;8.94;82.34;99957.63;5072270;28;45439;-72
2021/12/27 00:33:56;;;;;;;;;34.50;24.25;;;;;9.02;82.50;99973.13;5074515;28;45420;-73
2021/12/27 00:36:22;;;;;;;;;26.25;25.25;;;;;9.03;82.31;99970.44;5067141;28;45397;-73
2021/12/27 00:38:47;;;;;;;;;26.25;24.50;;;;;9.04;82.16;99966.00;5075670;28;46484;-73
2021/12/27 00:41:12;;;;;;;;;36.25;25.50;;;;;9.00;82.21;99952.09;5073320;27;45337;-72
2021/12/27 00:43:38;;;;;;;;;25.75;25.25;;;;;8.96;82.25;99941.69;5074462;28;45792;-72
2021/12/27 00:46:03;;;;;;;;;33.25;27.75;;;;;9.02;82.36;99950.22;5074953;27;45489;-73
2021/12/27 00:48:29;;;;;;;;;34.50;31.00;;;;;9.09;82.05;99949.06;5075196;28;45773;-72
2021/12/27 00:50:54;;;;;;;;;27.75;25.50;;;;;9.03;82.43;99936.13;5076687;28;45508;-72
2021/12/27 00:53:19;;;;;;;;;35.75;26.25;;;;;9.01;81.78;99929.19;5074897;28;45436;-72
2021/12/27 00:55:45;;;;;;;;;32.50;24.75;;;;;9.00;82.11;99930.97;5075416;28;45257;-72
2021/12/27 00:58:10;;;;;;;;;30.00;24.25;;;;;9.01;82.41;99930.03;5074887;28;46044;-72
2021/12/27 01:00:37;;;;;;;;;33.75;26.75;;;;;8.97;81.77;99923.19;5074369;28;45456;-72
2021/12/27 01:03:03;;;;;;;;;32.25;26.00;;;;;9.09;82.22;99942.94;5077377;28;45288;-72
2021/12/27 01:05:29;;;;;;;;;23.00;20.75;;;;;9.09;82.11;99935.88;5074796;28;45400;-72
2021/12/27 01:07:55;;;;;;;;;28.75;23.00;;;;;9.01;81.99;99919.47;5056376;28;47266;-72
2021/12/27 01:17:59;;;;;;;;;27.75;25.00;;;;;9.04;82.21;99908.78;5076543;28;45441;-72
2021/12/27 01:20:25;;;;;;;;;28.50;21.50;;;;;8.98;82.62;99901.13;5074755;28;45480;-72
2021/12/27 01:22:52;;;;;;;;;29.50;22.75;;;;;9.04;82.53;99919.34;5073002;28;45435;-72
2021/12/27 01:25:18;;;;;;;;;26.50;24.00;;;;;9.03;82.34;99909.72;5074362;27;45424;-72
2021/12/27 01:27:43;;;;;;;;;39.75;26.25;;;;;9.10;82.33;99928.81;5074640;28;45996;-72
2021/12/27 01:30:12;;;;;;;;;26.75;22.00;;;;;9.16;82.63;99938.25;5076172;28;45241;-72
2021/12/27 01:32:45;;;;;;;;;25.50;21.25;;;;;9.16;82.08;99922.41;5074267;28;45467;-72
2021/12/27 01:35:10;;;;;;;;;33.75;23.75;;;;;9.10;82.18;99916.47;5074664;28;45532;-71
2021/12/27 01:37:36;;;;;;;;;22.25;19.75;;;;;9.04;81.92;99900.88;5073813;28;46294;-72
2021/12/27 01:40:03;;;;;;;;;30.50;23.50;;;;;9.11;82.22;99925.22;5072902;28;45467;-72
2021/12/27 01:42:28;;;;;;;;;23.75;23.75;;;;;9.15;82.27;99931.25;5073873;28;45388;-72
2021/12/27 01:44:54;;;;;;;;;24.25;22.75;;;;;9.10;82.35;99923.53;5076548;28;45327;-72
2021/12/27 01:47:20;;;;;;;;;32.50;26.25;;;;;9.15;82.79;99925.97;5074012;28;46490;-72
2021/12/27 01:49:45;;;;;;;;;31.50;26.25;;;;;9.13;82.30;99923.41;5074088;28;47736;-72
2021/12/27 01:52:11;;;;;;;;;22.00;19.00;;;;;9.13;82.67;99927.81;5074260;28;45498;-72
2021/12/27 01:54:36;;;;;;;;;26.00;20.75;;;;;9.13;82.70;99918.13;5074168;28;45314;-72
2021/12/27 01:57:02;;;;;;;;;25.50;20.25;;;;;9.12;82.70;99923.44;5074152;27;48103;-72
2021/12/27 01:59:27;;;;;;;;;25.25;18.75;;;;;8.91;82.99;99902.28;5074219;27;46222;-72
2021/12/27 02:01:54;;;;;;;;;19.25;17.00;;;;;9.07;82.74;99916.59;5074005;28;45931;-72
2021/12/27 02:04:19;;;;;;;;;29.25;24.00;;;;;9.07;82.93;99911.31;5073806;27;45527;-72
2021/12/27 02:06:44;;;;;;;;;24.25;17.25;;;;;9.11;83.08;99909.41;5073736;28;45768;-72
2021/12/27 02:09:10;;;;;;;;;21.50;17.75;;;;;9.03;82.40;99898.28;5074987;28;45468;-72
2021/12/27 02:11:36;;;;;;;;;24.00;18.75;;;;;9.09;82.88;99909.47;5074226;28;45490;-72
2021/12/27 02:14:03;;;;;;;;;23.00;18.00;;;;;9.11;82.59;99901.47;5072295;28;45348;-72
2021/12/27 02:16:28;;;;;;;;;24.25;21.25;;;;;9.08;82.94;99897.19;5073573;28;45703;-72
2021/12/27 02:18:54;;;;;;;;;23.75;18.50;;;;;9.08;82.69;99898.97;5072300;27;45465;-72
2021/12/27 02:21:21;;;;;;;;;26.50;21.75;;;;;9.10;82.94;99892.69;5074619;28;45922;-72
2021/12/27 02:23:49;;;;;;;;;21.25;19.25;;;;;9.08;82.95;99889.25;5074673;27;45524;-72
2021/12/27 02:26:15;;;;;;;;;28.00;20.25;;;;;9.08;82.74;99897.19;5073480;28;45561;-72
2021/12/27 02:28:40;;;;;;;;;22.50;18.25;;;;;9.04;82.56;99889.47;5067350;28;45920;-72
2021/12/27 02:31:06;;;;;;;;;20.75;18.50;;;;;9.09;82.60;99895.44;5072465;28;45669;-72
2021/12/27 02:33:34;;;;;;;;;19.75;14.50;;;;;8.70;82.50;99830.16;5073534;28;45590;-72
2021/12/27 02:36:00;;;;;;;;;21.00;17.00;;;;;8.91;82.50;99859.22;5057949;28;46143;-72
2021/12/27 02:38:28;;;;;;;;;22.50;18.00;;;;;9.00;82.79;99880.81;5066173;28;45477;-72
2021/12/27 02:40:55;;;;;;;;;29.50;18.50;;;;;8.81;82.57;99845.56;5070047;28;45283;-72
2021/12/27 02:43:23;;;;;;;;;20.50;19.00;;;;;8.89;82.40;99848.75;5055079;28;45397;-72
2021/12/27 02:45:51;;;;;;;;;24.75;19.25;;;;;8.93;82.71;99852.97;5073314;28;46385;-72
2021/12/27 02:48:19;;;;;;;;;20.75;19.00;;;;;8.72;82.89;99806.38;5074534;28;45387;-72
2021/12/27 02:50:47;;;;;;;;;24.00;19.50;;;;;8.90;82.43;99837.25;5074693;28;45412;-72
2021/12/27 02:53:14;;;;;;;;;17.25;13.50;;;;;8.99;82.54;99847.41;5073244;27;45619;-72
2021/12/27 02:55:40;;;;;;;;;11.75;11.75;;;;;9.02;82.41;99843.78;5072758;27;45315;-72
2021/12/27 02:58:06;;;;;;;;;20.50;16.00;;;;;8.98;82.54;99840.44;5071634;28;45432;-70
2021/12/27 03:00:41;;;;;;;;;21.00;20.50;;;;;8.96;82.38;99829.06;5054642;28;45352;-70
2021/12/27 03:03:06;;;;;;;;;21.50;17.25;;;;;9.03;82.23;99843.75;5075550;28;45364;-70
2021/12/27 03:05:32;;;;;;;;;19.25;17.50;;;;;8.99;82.56;99847.41;5072674;28;45996;-70
2021/12/27 03:07:58;;;;;;;;;17.50;14.50;;;;;8.80;82.32;99820.09;5071423;28;45458;-70
2021/12/27 03:10:29;;;;;;;;;13.50;12.50;;;;;8.97;82.37;99844.00;5073090;28;45701;-71
2021/12/27 03:12:55;;;;;;;;;14.75;12.00;;;;;8.97;82.44;99836.09;5072816;28;45534;-72
2021/12/27 03:15:23;;;;;;;;;13.00;12.00;;;;;8.79;82.21;99798.09;5073306;28;46268;-72
2021/12/27 03:17:49;;;;;;;;;12.00;11.50;;;;;8.98;82.22;99844.84;5075255;28;46214;-72
2021/12/27 03:20:17;;;;;;;;;15.50;13.75;;;;;8.76;82.17;99800.88;5072856;28;45388;-72
2021/12/27 03:22:43;;;;;;;;;18.50;13.25;;;;;8.94;81.74;99844.13;5072463;28;45352;-72
2021/12/27 03:25:10;;;;;;;;;15.75;11.00;;;;;8.80;82.22;99812.19;5072214;28;45703;-72
2021/12/27 03:27:36;;;;;;;;;19.75;12.50;;;;;8.98;82.26;99835.16;5073067;28;45364;-72
2021/12/27 03:30:11;;;;;;;;;19.00;17.50;;;;;8.99;82.18;99836.88;5074959;28;45372;-72
2021/12/27 03:32:37;;;;;;;;;12.50;12.00;;;;;8.59;82.00;99782.28;5072252;28;45510;-72
2021/12/27 03:35:11;;;;;;;;;13.75;13.00;;;;;8.98;82.20;99844.84;5072650;28;46141;-72
2021/12/27 03:37:39;;;;;;;;;14.50;12.50;;;;;8.96;82.14;99844.91;5072593;28;45526;-72
2021/12/27 03:40:07;;;;;;;;;17.50;14.50;;;;;8.93;82.30;99831.00;5054160;28;45360;-72
2021/12/27 03:42:33;;;;;;;;;14.50;13.00;;;;;8.76;82.08;99813.22;5072455;28;45701;-72
2021/12/27 03:44:58;;;;;;;;;15.50;11.50;;;;;8.80;82.20;99817.47;5075747;27;45809;-72
2021/12/27 03:47:24;;;;;;;;;14.50;13.50;;;;;8.86;82.14;99833.03;5076279;27;45757;-72
2021/12/27 03:49:49;;;;;;;;;9.75;8.00;;;;;8.84;81.73;99833.09;5074353;28;46758;-71
2021/12/27 03:52:15;;;;;;;;;8.25;5.50;;;;;8.68;82.21;99808.28;5076087;28;45382;-71
2021/12/27 03:54:40;;;;;;;;;10.50;9.25;;;;;8.74;82.28;99823.84;5075556;28;45795;-71
2021/12/27 03:57:06;;;;;;;;;9.00;9.00;;;;;8.64;82.01;99818.06;5078291;27;45505;-71
2021/12/27 03:59:52;;;;;;;;;12.75;11.00;;;;;8.68;82.05;99808.28;5075929;28;45502;-72
2021/12/27 04:02:17;;;;;;;;;12.75;10.25;;;;;8.67;82.42;99800.41;5075546;27;45459;-72
2021/12/27 04:04:43;;;;;;;;;18.25;11.25;;;;;8.68;82.30;99802.13;5075830;27;45926;-72
2021/12/27 04:07:09;;;;;;;;;11.00;9.50;;;;;8.80;82.23;99820.94;5075871;27;45410;-72
2021/12/27 04:09:37;;;;;;;;;17.00;12.00;;;;;8.80;82.40;99815.69;5075709;28;45436;-72
2021/12/27 04:12:03;;;;;;;;;16.50;11.00;;;;;8.77;82.66;99804.41;5077895;28;45327;-72
2021/12/27 04:14:29;;;;;;;;;16.50;12.25;;;;;8.78;82.58;99803.47;5075554;27;46187;-72
2021/12/27 04:16:54;;;;;;;;;12.00;10.25;;;;;8.74;82.61;99786.91;5073712;27;45443;-72
2021/12/27 04:19:20;;;;;;;;;12.50;9.75;;;;;8.76;82.53;99794.75;5075760;27;45473;-72
2021/12/27 04:21:46;;;;;;;;;11.00;10.00;;;;;8.83;82.37;99807.63;5075859;28;45295;-72
2021/12/27 04:24:12;;;;;;;;;14.75;11.00;;;;;8.89;82.28;99801.25;5072495;28;46842;-72
2021/12/27 04:26:37;;;;;;;;;13.75;11.00;;;;;8.81;82.37;99790.16;5076656;28;45504;-72
2021/12/27 04:29:03;;;;;;;;;19.25;11.00;;;;;8.94;82.37;99804.56;5055875;28;45523;-72
2021/12/27 04:31:29;;;;;;;;;10.00;10.00;;;;;8.91;82.05;99798.53;5075372;28;45368;-72
2021/12/27 04:33:54;;;;;;;;;17.25;14.50;;;;;8.81;82.39;99779.59;5075586;28;46129;-72
2021/12/27 04:36:20;;;;;;;;;19.25;17.25;;;;;8.86;81.84;99781.13;5076196;28;45505;-72
2021/12/27 04:38:45;;;;;;;;;19.00;17.75;;;;;8.84;81.89;99772.41;5054928;28;45436;-72
2021/12/27 04:41:15;;;;;;;;;25.25;13.75;;;;;9.01;81.76;99794.59;5071935;28;45425;-72
2021/12/27 04:43:40;;;;;;;;;20.75;19.00;;;;;8.97;82.25;99791.22;5073186;28;45433;-72
2021/12/27 04:46:06;;;;;;;;;21.25;17.00;;;;;8.99;82.43;99789.34;5074915;27;45462;-72
2021/12/27 04:48:31;;;;;;;;;19.75;18.00;;;;;9.06;82.18;99788.19;5076130;27;45309;-72
2021/12/27 04:50:57;;;;;;;;;22.75;17.75;;;;;8.94;82.21;99766.72;5075675;28;45466;-70
2021/12/27 04:53:23;;;;;;;;;18.50;16.00;;;;;9.01;82.20;99786.66;5074703;28;46288;-72
2021/12/27 04:55:49;;;;;;;;;22.50;18.75;;;;;8.95;81.99;99784.28;5073308;28;45735;-71
2021/12/27 04:58:16;;;;;;;;;16.50;13.50;;;;;9.09;82.19;99803.91;5075158;27;45487;-71
2021/12/27 05:00:43;;;;;;;;;18.00;15.00;;;;;9.09;81.87;99792.47;5077818;27;45482;-71
2021/12/27 05:03:08;;;;;;;;;19.50;15.75;;;;;9.02;82.08;99778.66;5076807;27;45332;-71
2021/12/27 05:05:34;;;;;;;;;21.50;17.50;;;;;8.94;82.07;99754.41;5074449;27;45301;-71
2021/12/27 05:08:01;;;;;;;;;25.50;20.00;;;;;8.74;82.37;99720.97;5073457;28;45511;-71
2021/12/27 05:10:28;;;;;;;;;23.00;18.75;;;;;9.12;81.77;99780.91;5074799;28;45428;-71
2021/12/27 05:12:54;;;;;;;;;32.50;23.25;;;;;8.96;81.82;99752.53;5068657;27;45836;-71
2021/12/27 05:15:20;;;;;;;;;28.00;21.75;;;;;9.00;81.72;99758.53;5081815;27;49326;-71
2021/12/27 05:17:45;;;;;;;;;23.00;18.50;;;;;9.10;81.68;99768.66;5074859;28;45610;-72
2021/12/27 05:20:11;;;;;;;;;26.50;19.25;;;;;9.17;81.62;99776.28;5074241;28;45352;-72
2021/12/27 05:22:38;;;;;;;;;30.25;23.25;;;;;9.17;81.79;99765.72;5067640;27;46139;-72
2021/12/27 05:25:05;;;;;;;;;26.75;21.75;;;;;9.19;81.83;99759.47;5074369;28;46000;-72
2021/12/27 05:27:31;;;;;;;;;22.00;18.75;;;;;9.12;81.50;99742.19;5056136;28;45524;-72
2021/12/27 05:29:56;;;;;;;;;29.75;21.75;;;;;9.02;81.79;99720.59;5075200;27;45434;-72
2021/12/27 05:32:22;;;;;;;;;24.00;21.25;;;;;9.23;81.73;99752.25;5074049;27;46003;-72
2021/12/27 05:34:47;;;;;;;;;19.50;18.25;;;;;9.26;81.45;99749.47;5072516;28;45506;-72
2021/12/27 05:37:13;;;;;;;;;30.25;25.00;;;;;9.26;81.65;99744.22;5072801;27;45440;-72
2021/12/27 05:39:38;;;;;;;;;28.50;22.50;;;;;9.14;81.31;99718.34;5074364;27;45343;-72
2021/12/27 05:42:04;;;;;;;;;25.25;23.50;;;;;9.01;81.83;99696.94;5077085;27;45296;-71
2021/12/27 05:44:30;;;;;;;;;27.00;20.75;;;;;9.28;81.33;99734.44;5074640;27;45388;-71
2021/12/27 05:46:55;;;;;;;;;24.25;19.25;;;;;9.10;81.58;99710.56;5063896;28;45465;-72
2021/12/27 05:49:22;;;;;;;;;23.75;18.00;;;;;9.29;82.25;99726.47;5074018;28;45401;-72
2021/12/27 05:51:47;;;;;;;;;24.25;20.00;;;;;9.21;81.62;99707.47;5073043;28;47091;-72
2021/12/27 05:54:14;;;;;;;;;25.25;20.50;;;;;9.31;81.65;99721.94;5075307;28;45287;-72
2021/12/27 05:56:45;;;;;;;;;20.50;18.00;;;;;9.27;81.87;99708.97;5084645;27;45460;-72
2021/12/27 05:59:15;;;;;;;;;22.75;20.00;;;;;9.33;81.61;99713.97;5077535;27;45562;-72
2021/12/27 06:01:41;;;;;;;;;21.50;19.00;;;;;9.19;81.97;99682.91;5073376;27;45545;-72
2021/12/27 06:04:06;;;;;;;;;24.00;20.50;;;;;9.35;81.96;99711.25;5073097;28;45512;-72
2021/12/27 06:06:31;;;;;;;;;23.75;21.50;;;;;9.35;81.65;99709.47;5073199;28;45913;-72
2021/12/27 06:08:57;;;;;;;;;20.00;19.25;;;;;9.21;81.79;99674.94;5075457;28;45422;-72
2021/12/27 06:11:22;;;;;;;;;25.00;20.00;;;;;9.35;81.94;99695.41;5073522;27;45502;-72
2021/12/27 06:13:48;;;;;;;;;19.00;17.50;;;;;9.15;82.12;99652.31;5070885;27;45808;-72
2021/12/27 06:16:13;;;;;;;;;24.25;20.25;;;;;9.16;82.10;99647.88;5080529;27;45428;-72
2021/12/27 06:18:39;;;;;;;;;22.75;20.25;;;;;9.24;81.82;99653.69;5073829;28;45335;-72
2021/12/27 06:21:05;;;;;;;;;22.25;18.75;;;;;9.27;82.03;99659.66;5075132;27;45345;-72
2021/12/27 06:23:31;;;;;;;;;26.25;20.50;;;;;9.16;81.92;99642.59;5051751;28;45540;-72
2021/12/27 06:25:57;;;;;;;;;24.25;18.25;;;;;9.27;81.81;99646.47;5066778;28;45242;-72
2021/12/27 06:28:22;;;;;;;;;28.50;19.75;;;;;9.35;81.80;99663.72;5074140;27;46806;-72
2021/12/27 06:30:48;;;;;;;;;26.25;17.25;;;;;9.40;81.65;99662.59;5072852;27;46134;-73
2021/12/27 06:33:13;;;;;;;;;14.50;13.50;;;;;9.38;82.03;99664.44;5074501;27;45381;-72
2021/12/27 06:35:39;;;;;;;;;19.00;14.00;;;;;9.32;82.15;99652.41;5073728;28;45450;-73
2021/12/27 06:38:04;;;;;;;;;27.50;19.75;;;;;9.29;82.23;99641.09;5073410;27;45317;-73
2021/12/27 06:40:30;;;;;;;;;16.50;13.75;;;;;9.28;82.14;99631.47;5067677;28;47906;-73
2021/12/27 06:42:56;;;;;;;;;17.25;16.00;;;;;9.40;82.23;99646.75;5073421;27;45486;-73
2021/12/27 06:45:22;;;;;;;;;15.25;13.00;;;;;9.29;82.05;99623.50;5074322;27;45651;-72
2021/12/27 06:47:48;;;;;;;;;20.00;13.00;;;;;9.42;82.46;99630.84;5077217;27;45448;-72
2021/12/27 06:50:14;;;;;;;;;11.00;11.00;;;;;9.47;81.82;99642.91;5076931;27;45482;-73
2021/12/27 06:52:39;;;;;;;;;19.25;17.25;;;;;9.49;82.08;99648.09;5071666;28;45296;-70
2021/12/27 06:55:05;;;;;;;;;23.50;17.25;;;;;9.48;81.98;99647.25;5071941;28;49743;-73
2021/12/27 06:57:31;;;;;;;;;19.50;15.75;;;;;9.33;82.03;99606.56;5054466;28;45376;-73
2021/12/27 06:59:57;;;;;;;;;21.75;15.00;;;;;9.37;82.16;99594.06;5074989;27;45916;-73
2021/12/27 07:02:23;;;;;;;;;21.75;17.00;;;;;9.49;81.78;99621.69;5071673;27;45347;-73
2021/12/27 07:04:48;;;;;;;;;18.00;14.00;;;;;9.52;82.14;99625.03;5071920;28;45389;-73
2021/12/27 07:07:13;;;;;;;;;24.50;19.75;;;;;9.44;81.87;99610.47;5065889;28;45802;-73
2021/12/27 07:09:39;;;;;;;;;18.25;17.00;;;;;9.41;81.94;99598.31;5073206;28;46283;-73
2021/12/27 07:12:05;;;;;;;;;22.25;14.25;;;;;9.58;81.95;99617.75;5075059;28;45426;-73
2021/12/27 07:14:31;;;;;;;;;20.50;18.00;;;;;9.57;82.23;99619.53;5078339;27;45515;-73
2021/12/27 07:16:56;;;;;;;;;15.75;15.50;;;;;9.52;82.18;99601.25;5075990;27;45381;-71
2021/12/27 07:19:21;;;;;;;;;16.00;15.75;;;;;9.38;81.95;99576.44;5073079;27;45563;-71
2021/12/27 07:21:47;;;;;;;;;17.50;12.75;;;;;9.59;82.11;99599.19;5075218;27;45490;-71
2021/12/27 07:24:12;;;;;;;;;18.25;17.75;;;;;9.55;81.73;99589.69;5077696;28;45741;-72
2021/12/27 07:26:38;;;;;;;;;24.50;20.00;;;;;9.51;82.27;99581.06;5075400;27;45458;-73
2021/12/27 07:29:03;;;;;;;;;25.50;19.25;;;;;9.54;82.05;99588.00;5077994;27;46164;-72
2021/12/27 07:31:29;;;;;;;;;14.50;14.50;;;;;9.58;82.17;99592.19;5083491;27;45450;-70
2021/12/27 07:33:54;;;;;;;;;16.75;13.00;;;;;9.50;82.30;99574.09;5076084;28;45373;-70
2021/12/27 07:36:20;;;;;;;;;18.00;17.00;;;;;9.62;82.40;99595.53;5058971;28;45331;-70
2021/12/27 07:38:45;;;;;;;;;11.00;9.00;;;;;9.57;81.87;99579.06;5056290;28;48509;-70
2021/12/27 07:41:11;;;;;;;;;26.50;19.00;;;;;9.38;82.35;99542.13;5072802;27;45415;-71
2021/12/27 07:43:37;;;;;;;;;21.25;15.25;;;;;9.63;82.38;99595.47;5074820;28;45322;-71
2021/12/27 07:46:02;;;;;;;;;21.25;17.75;;;;;9.58;82.64;99576.34;5085674;27;45260;-71
2021/12/27 07:48:28;;;;;;;;;15.25;14.25;;;;;9.62;81.79;99579.69;5057769;28;47537;-73
2021/12/27 07:50:53;;;;;;;;;19.25;15.25;;;;;9.67;82.24;99586.44;5078079;27;45954;-73
2021/12/27 07:53:19;;;;;;;;;23.25;17.00;;;;;9.65;82.16;99576.91;5075876;27;45277;-71
2021/12/27 07:55:44;;;;;;;;;22.75;19.00;;;;;9.31;82.34;99520.44;5075917;28;45485;-71
2021/12/27 07:58:10;;;;;;;;;20.75;18.50;;;;;9.58;82.17;99571.06;5069926;28;48526;-71
2021/12/27 08:00:36;;;;;;;;;24.25;19.75;;;;;9.58;82.83;99565.78;5076662;27;45494;-71
2021/12/27 08:03:02;;;;;;;;;21.50;18.75;;;;;9.68;82.69;99582.06;5077299;28;45284;-71
2021/12/27 08:05:28;;;;;;;;;18.75;17.00;;;;;9.69;82.50;99583.75;5076053;27;45647;-71
2021/12/27 08:07:53;;;;;;;;;16.00;16.00;;;;;9.29;82.82;99519.66;5075280;27;47591;-71
2021/12/27 08:10:19;;;;;;;;;25.75;18.75;;;;;9.57;82.35;99557.94;5074674;27;45557;-71
2021/12/27 08:12:45;;;;;;;;;26.25;24.50;;;;;9.71;82.71;99582.75;5072350;27;45348;-73
2021/12/27 08:15:12;;;;;;;;;21.75;20.00;;;;;9.68;82.60;99574.13;5059922;27;45379;-73
2021/12/27 08:17:38;;;;;;;;;22.50;18.75;;;;;9.70;82.91;99580.16;5075916;27;46283;-73
2021/12/27 08:20:05;;;;;;;;;23.25;19.75;;;;;9.77;82.29;99581.59;5075125;27;45673;-73
2021/12/27 08:22:31;;;;;;;;;21.50;20.00;;;;;9.71;82.68;99566.91;5073280;28;45465;-73
2021/12/27 08:24:57;;;;;;;;;27.50;21.25;;;;;9.82;82.40;99584.00;5069784;28;45491;-73
2021/12/27 08:27:26;;;;;;;;;24.25;19.75;;;;;9.57;82.65;99540.31;5075889;28;45522;-73
2021/12/27 08:29:51;;;;;;;;;20.25;19.50;;;;;9.71;82.83;99560.75;5076917;27;45426;-73
2021/12/27 08:32:18;;;;;;;;;22.00;19.00;;;;;9.79;82.66;99566.50;5074015;27;45431;-73
2021/12/27 08:34:43;;;;;;;;;25.75;20.00;;;;;9.86;82.56;99573.22;5068329;27;45407;-73
2021/12/27 08:37:09;;;;;;;;;25.00;21.50;;;;;9.65;82.91;99534.66;5075380;28;45905;-71
2021/12/27 08:39:34;;;;;;;;;24.25;20.00;;;;;9.89;82.72;99573.06;5079252;27;45570;-73
2021/12/27 08:42:01;;;;;;;;;21.50;20.50;;;;;9.92;82.32;99572.91;5058964;28;45505;-73
2021/12/27 08:44:26;;;;;;;;;20.00;20.00;;;;;9.94;82.12;99568.41;5074739;28;45417;-73
2021/12/27 08:46:52;;;;;;;;;5.25;5.25;;;;;9.86;82.54;99564.44;5074747;27;46414;-73
2021/12/27 08:49:17;;;;;;;;;24.00;22.00;;;;;9.82;82.40;99545.22;5073842;28;45435;-73
2021/12/27 08:51:43;;;;;;;;;19.00;17.75;;;;;9.97;82.35;99570.88;5075271;27;45486;-73
2021/12/27 08:54:09;;;;;;;;;20.00;19.00;;;;;9.80;82.62;99533.03;5077932;27;45648;-73
2021/12/27 08:56:36;;;;;;;;;19.25;18.25;;;;;9.88;82.65;99552.84;5075238;27;45328;-72
2021/12/27 08:59:01;;;;;;;;;22.50;14.75;;;;;9.77;82.57;99524.31;5074373;27;45518;-73
2021/12/27 09:01:27;;;;;;;;;21.00;20.00;;;;;9.96;82.29;99549.81;5073995;27;45312;-73
2021/12/27 09:03:52;;;;;;;;;20.00;20.00;;;;;9.93;83.10;99542.03;5075299;28;45350;-73
2021/12/27 09:06:18;;;;;;;;;22.00;18.50;;;;;9.87;82.66;99529.97;5075802;27;45501;-73
2021/12/27 09:08:43;;;;;;;;;20.00;18.25;;;;;10.07;82.54;99554.56;5075847;28;45852;-73
2021/12/27 09:11:08;;;;;;;;;21.75;18.75;;;;;9.97;82.58;99533.00;5076504;27;45349;-73
2021/12/27 09:13:36;;;;;;;;;21.50;18.00;;;;;10.01;82.89;99538.06;5074795;27;45597;-72
2021/12/27 09:16:03;;;;;;;;;28.75;20.50;;;;;10.02;82.84;99537.13;5073747;28;45775;-72
2021/12/27 09:18:30;;;;;;;;;24.00;18.50;;;;;10.10;83.04;99549.13;5056390;28;45346;-71
2021/12/27 09:20:55;;;;;;;;;23.00;19.75;;;;;10.05;82.74;99535.28;5058686;28;45331;-73
2021/12/27 09:23:20;;;;;;;;;19.50;17.25;;;;;10.00;82.90;99530.25;5065214;28;45457;-72
2021/12/27 09:25:47;;;;;;;;;23.50;16.75;;;;;10.10;83.10;99549.97;5031537;28;47109;-73
2021/12/27 09:28:14;;;;;;;;;22.75;19.50;;;;;10.13;82.78;99548.97;5053604;28;45503;-72
2021/12/27 09:30:40;;;;;;;;;21.50;20.50;;;;;10.14;82.72;99550.66;5060368;28;45505;-72
2021/12/27 09:33:06;;;;;;;;;21.00;18.00;;;;;10.15;82.57;99555.03;5056043;28;45675;-72
2021/12/27 09:35:31;;;;;;;;;22.75;20.50;;;;;10.15;83.11;99552.38;5034783;28;48545;-71
2021/12/27 09:37:57;;;;;;;;;20.50;20.50;;;;;9.95;82.98;99524.31;5047305;28;45865;-71
2021/12/27 09:40:22;;;;;;;;;23.25;20.75;;;;;10.09;82.75;99552.66;5053054;28;45463;-73
2021/12/27 09:42:48;;;;;;;;;27.25;23.00;;;;;10.04;83.58;99544.16;5051029;28;45447;-71
2021/12/27 09:45:14;;;;;;;;;21.00;20.75;;;;;10.03;82.85;99535.38;5053325;28;46133;-72
2021/12/27 09:47:40;;;;;;;;;26.50;20.75;;;;;10.08;83.59;99549.19;5052879;28;45669;-72
2021/12/27 09:50:09;;;;;;;;;21.50;19.50;;;;;10.16;83.11;99562.00;5050576;28;45618;-72
2021/12/27 09:52:34;;;;;;;;;31.25;26.75;;;;;10.17;83.43;99561.06;5052623;28;45508;-72
2021/12/27 09:55:03;;;;;;;;;21.00;17.75;;;;;10.18;83.48;99565.44;5051544;28;46300;-72
2021/12/27 09:57:30;;;;;;;;;25.00;17.75;;;;;10.13;83.24;99552.44;5052684;28;45416;-72
2021/12/27 09:59:55;;;;;;;;;24.50;21.00;;;;;10.14;83.50;99554.16;5054068;28;45459;-72
2021/12/27 10:02:24;;;;;;;;;25.00;23.75;;;;;10.00;83.41;99520.50;5052159;28;45416;-72
2021/12/27 10:04:49;;;;;;;;;30.50;24.75;;;;;10.19;83.75;99543.34;5046036;28;46309;-72
2021/12/27 10:07:22;;;;;;;;;29.50;22.75;;;;;10.08;83.92;99524.53;5049852;28;45705;-72
2021/12/27 10:10:00;;;;;;;;;28.50;20.75;;;;;9.98;83.64;99495.94;5052011;28;45612;-72
2021/12/27 10:12:29;;;;;;;;;24.25;20.75;;;;;10.25;83.46;99540.38;5052212;28;45636;-71
2021/12/27 10:15:03;;;;;;;;;23.00;22.25;;;;;10.30;83.66;99537.56;5045373;28;46619;-73
2021/12/27 10:17:36;;;;;;;;;23.25;16.75;;;;;10.16;83.31;99517.06;5045586;28;45626;-72
2021/12/27 10:20:10;;;;;;;;;21.50;17.00;;;;;10.18;83.82;99513.41;5049517;28;45555;-73
2021/12/27 10:22:44;;;;;;;;;16.00;16.00;;;;;10.33;83.29;99540.88;5050273;28;45417;-72
2021/12/27 10:25:17;;;;;;;;;17.75;14.00;;;;;10.21;83.22;99505.31;5048892;27;48412;-73
2021/12/27 10:27:43;;;;;;;;;20.25;14.25;;;;;10.33;83.44;99538.25;5068486;28;45439;-72
2021/12/27 10:30:11;;;;;;;;;16.25;13.25;;;;;10.21;83.61;99501.84;5067632;28;45539;-70
2021/12/27 10:32:36;;;;;;;;;16.50;12.50;;;;;10.28;83.47;99515.63;5067725;28;45659;-71
2021/12/27 10:35:05;;;;;;;;;19.25;12.50;;;;;10.37;83.51;99529.19;5063541;28;46296;-70
2021/12/27 10:37:32;;;;;;;;;11.00;10.75;;;;;10.27;83.48;99500.69;5060318;28;45293;-70
2021/12/27 10:40:02;;;;;;;;;15.00;10.75;;;;;10.44;83.80;99517.38;5057915;28;45398;-70
2021/12/27 10:42:33;;;;;;;;;10.25;8.50;;;;;10.46;83.59;99514.63;5057611;28;45284;-70
2021/12/27 10:45:16;;;;;;;;;9.25;5.00;;;;;10.39;83.28;99500.88;5059135;28;46001;-70
2021/12/27 10:47:41;;;;;;;;;8.25;8.25;;;;;10.51;83.34;99512.59;5060126;28;45379;-70
2021/12/27 10:50:19;;;;;;;;;9.75;6.75;;;;;10.53;83.62;99504.56;5058455;28;45356;-70
2021/12/27 10:53:05;;;;;;;;;13.25;8.25;;;;;10.50;83.60;99507.38;5059808;28;45512;-70
2021/12/27 10:55:38;;;;;;;;;6.50;5.00;;;;;10.60;83.51;99513.91;5052382;28;48594;-70
2021/12/27 10:58:25;;;;;;;;;7.50;6.00;;;;;10.62;83.07;99512.03;5071543;28;45748;-70
2021/12/27 11:00:58;;;;;;;;;11.75;7.50;;;;;10.44;83.59;99477.69;5069748;28;45572;-70
2021/12/27 11:03:32;;;;;;;;;8.00;6.75;;;;;10.27;82.85;99448.66;5073433;28;45388;-70
2021/12/27 11:05:59;;;;;;;;;9.00;7.00;;;;;10.62;83.20;99501.47;5074065;28;45447;-70
2021/12/27 11:08:26;;;;;;;;;6.50;6.50;;;;;10.60;83.24;99503.31;5072292;28;45593;-70
2021/12/27 11:10:52;;;;;;;;;12.50;7.00;;;;;10.64;83.01;99505.69;5072656;28;45415;-70
2021/12/27 11:13:18;;;;;;;;;13.00;8.00;;;;;10.64;83.55;99499.56;5068972;28;45456;-70
2021/12/27 11:15:43;;;;;;;;;11.00;7.25;;;;;10.53;83.24;99488.69;5072145;28;46204;-70
2021/12/27 11:18:12;;;;;;;;;8.50;6.75;;;;;10.62;83.44;99496.16;5074796;28;45330;-70
2021/12/27 11:20:43;;;;;;;;;6.75;6.50;;;;;10.62;83.24;99490.88;5073261;28;45501;-70
2021/12/27 11:23:10;;;;;;;;;13.50;10.00;;;;;10.57;83.25;99483.16;5072158;27;45583;-70
2021/12/27 11:25:38;;;;;;;;;7.75;7.00;;;;;10.68;83.19;99496.69;5071280;28;45329;-70
2021/12/27 11:28:23;;;;;;;;;7.50;7.50;;;;;10.55;83.30;99463.03;5054150;28;45652;-71
2021/12/27 11:30:49;;;;;;;;;15.75;12.00;;;;;10.67;82.91;99481.72;5058385;28;45494;-71